Shirley P. Settoon — WDF9252 — position and weather

sailwx.info

Track history (hours):
 
Tides and Currents Weather Stations Pressure Air Temp Water Temp Dewpoint Dewpoint Depression Visibility Wind Speed Wind Dir Waves Ship Positions

Shirley P. Settoon

Owner: Settoon Towing, LLC, Houma, LA. More information available from US FCC via Universal Licensing System and Coast Guard Vessel Documentation Center.

Last reported at 2014-Oct-31 23:24 UTC. Time now 2014-Oct-31 23:56 UTC.
Position N 29°57' W 090°10'.

Length 32 m.

Type: Towing. MMSI: 367503240.

Date/timePositionNaut miles runAvg speedWind from/ knotsBaromVisibWave heightAir tempDewpointWater temp
2014-Oct-31 23:24N 29°57' W 090°10'0 0.0
2014-Oct-31 22:33N 29°57' W 090°10'0 0.0
2014-Oct-31 21:33N 29°57' W 090°10'0 0.0
2014-Oct-31 20:10N 29°57' W 090°10'0 0.1
2014-Oct-31 19:27N 29°57' W 090°10'0 0.0
2014-Oct-31 18:33N 29°57' W 090°10'1 1.0
2014-Oct-31 17:29N 29°57' W 090°09'4 4.6
2014-Oct-31 16:33N 29°55' W 090°05'5 4.5
2014-Oct-31 15:32N 29°56' W 090°00'  
2014-Oct-28 17:32N 29°56' W 089°59'6 5.9
2014-Oct-28 16:27N 29°55' W 090°07'27 6.2
2014-Oct-28 12:07N 30°02' W 090°36'4 7.2
2014-Oct-28 11:33N 30°02' W 090°41'7 6.5
2014-Oct-28 10:33N 29°60' W 090°48'0 0.0
2014-Oct-28 09:33N 29°60' W 090°48'0 0.1
2014-Oct-28 08:33N 29°60' W 090°48'11 4.7
2014-Oct-28 06:12N 30°08' W 090°57'  
Track history (hours):
 
Tides and Currents Weather Stations Pressure Air Temp Water Temp Dewpoint Dewpoint Depression Visibility Wind Speed Wind Dir Waves Ship Positions

Shirley P. Settoon

Owner: Settoon Towing, LLC, Houma, LA. More information available from US FCC via Universal Licensing System and Coast Guard Vessel Documentation Center.

Last reported at 2014-Oct-31 23:24 UTC. Time now 2014-Oct-31 23:56 UTC.
Position N 29°57' W 090°10'.

Length 32 m.

Type: Towing. MMSI: 367503240.

Date/timePositionNaut miles runAvg speedWind from/ knotsBaromVisibWave heightAir tempDewpointWater temp
2014-Oct-31 23:24N 29°57' W 090°10'0 0.0
2014-Oct-31 22:33N 29°57' W 090°10'0 0.0
2014-Oct-31 21:33N 29°57' W 090°10'0 0.0
2014-Oct-31 20:10N 29°57' W 090°10'0 0.1
2014-Oct-31 19:27N 29°57' W 090°10'0 0.0
2014-Oct-31 18:33N 29°57' W 090°10'1 1.0
2014-Oct-31 17:29N 29°57' W 090°09'4 4.6
2014-Oct-31 16:33N 29°55' W 090°05'5 4.5
2014-Oct-31 15:32N 29°56' W 090°00'  
2014-Oct-28 17:32N 29°56' W 089°59'6 5.9
2014-Oct-28 16:27N 29°55' W 090°07'27 6.2
2014-Oct-28 12:07N 30°02' W 090°36'4 7.2
2014-Oct-28 11:33N 30°02' W 090°41'7 6.5
2014-Oct-28 10:33N 29°60' W 090°48'0 0.0
2014-Oct-28 09:33N 29°60' W 090°48'0 0.1
2014-Oct-28 08:33N 29°60' W 090°48'11 4.7
2014-Oct-28 06:12N 30°08' W 090°57'  

Dump ship's entire track history